Time,TemperatureF,DewpointF,PressureIn,WindDirection,WindDirectionDegrees,WindSpeedMPH,WindSpeedGustMPH,Humidity,HourlyPrecipIn,Conditions,Clouds,dailyrainin,SoftwareType,DateUTC
2013-01-10 00:04:00,50.9,48.9,30.55,North,349,0.0,0.0,93,0.00,,,0.00,Wunderground v.1.15,2013-01-10 05:04:00,
2013-01-10 00:06:00,50.8,48.8,30.55,North,349,0.0,0.0,93,0.00,,,0.00,Wunderground v.1.15,2013-01-10 05:06:00,
2013-01-10 00:08:00,50.7,48.7,30.55,North,350,0.0,0.0,93,0.00,,,0.00,Wunderground v.1.15,2013-01-10 05:08:00,
2013-01-10 00:12:00,50.5,48.6,30.55,North,349,0.0,0.0,93,0.00,,,0.00,Wunderground v.1.15,2013-01-10 05:12:00,
2013-01-10 00:18:00,50.2,48.3,30.55,North,350,0.0,0.0,93,0.00,,,0.00,Wunderground v.1.15,2013-01-10 05:18:00,
2013-01-10 00:24:00,50.1,48.4,30.55,North,350,0.0,0.0,94,0.00,,,0.00,Wunderground v.1.15,2013-01-10 05:24:00,
2013-01-10 00:30:00,50.0,48.3,30.55,North,350,0.0,0.0,94,0.00,,,0.00,Wunderground v.1.15,2013-01-10 05:30:00,
2013-01-10 00:36:00,50.1,48.7,30.54,North,350,0.0,0.0,95,0.00,,,0.00,Wunderground v.1.15,2013-01-10 05:36:00,
2013-01-10 00:42:00,50.1,48.7,30.54,North,350,0.0,1.0,95,0.00,,,0.00,Wunderground v.1.15,2013-01-10 05:42:00,
2013-01-10 00:48:00,50.1,48.7,30.54,North,350,1.0,1.0,95,0.00,,,0.00,Wunderground v.1.15,2013-01-10 05:48:00,
2013-01-10 00:54:00,50.5,49.4,30.53,North,349,0.0,1.0,96,0.00,,,0.00,Wunderground v.1.15,2013-01-10 05:54:00,
2013-01-10 01:00:00,50.5,49.1,30.53,North,350,0.0,0.0,95,0.00,,,0.00,Wunderground v.1.15,2013-01-10 06:00:00,
2013-01-10 01:06:00,50.6,49.2,30.54,NW,324,1.0,1.0,95,0.00,,,0.00,Wunderground v.1.15,2013-01-10 06:06:00,
2013-01-10 01:12:00,50.5,49.1,30.53,NW,326,0.0,1.0,95,0.00,,,0.00,Wunderground v.1.15,2013-01-10 06:12:00,
2013-01-10 01:18:00,50.4,49.0,30.53,NW,326,0.0,1.0,95,0.00,,,0.00,Wunderground v.1.15,2013-01-10 06:18:00,
2013-01-10 01:24:00,50.3,48.9,30.53,NW,326,0.0,0.0,95,0.00,,,0.00,Wunderground v.1.15,2013-01-10 06:24:00,
2013-01-10 01:30:00,50.3,48.9,30.54,NW,324,0.0,0.0,95,0.00,,,0.00,Wunderground v.1.15,2013-01-10 06:30:00,
2013-01-10 01:36:00,50.5,49.4,30.54,WNW,293,1.0,1.0,96,0.00,,,0.00,Wunderground v.1.15,2013-01-10 06:36:00,
2013-01-10 01:42:00,50.5,49.1,30.53,WNW,295,0.0,1.0,95,0.00,,,0.00,Wunderground v.1.15,2013-01-10 06:42:00,
2013-01-10 01:48:00,50.6,49.2,30.53,WNW,295,0.0,1.0,95,0.00,,,0.00,Wunderground v.1.15,2013-01-10 06:48:00,
2013-01-10 01:54:00,50.6,49.2,30.53,WNW,295,0.0,0.0,95,0.00,,,0.00,Wunderground v.1.15,2013-01-10 06:54:00,
2013-01-10 02:00:00,50.7,49.3,30.53,WSW,246,1.0,2.0,95,0.00,,,0.00,Wunderground v.1.15,2013-01-10 07:00:00,
2013-01-10 02:06:00,50.7,49.3,30.53,WSW,245,1.0,2.0,95,0.00,,,0.00,Wunderground v.1.15,2013-01-10 07:06:00,
2013-01-10 02:12:00,50.4,48.7,30.53,WSW,245,0.0,1.0,94,0.00,,,0.00,Wunderground v.1.15,2013-01-10 07:12:00,
2013-01-10 02:18:00,49.8,48.4,30.53,WSW,238,0.0,1.0,95,0.00,,,0.00,Wunderground v.1.15,2013-01-10 07:18:00,
2013-01-10 02:24:00,49.2,47.8,30.53,WSW,238,0.0,0.0,95,0.00,,,0.00,Wunderground v.1.15,2013-01-10 07:24:00,
2013-01-10 02:30:00,48.8,47.7,30.53,WSW,238,0.0,0.0,96,0.00,,,0.00,Wunderground v.1.15,2013-01-10 07:30:00,
2013-01-10 02:36:00,48.9,48.1,30.53,SW,219,0.0,2.0,97,0.00,,,0.00,Wunderground v.1.15,2013-01-10 07:36:00,
2013-01-10 02:42:00,49.0,48.2,30.52,SW,219,1.0,1.0,97,0.00,,,0.00,Wunderground v.1.15,2013-01-10 07:42:00,
2013-01-10 02:48:00,48.9,48.1,30.52,SW,219,0.0,1.0,97,0.00,,,0.00,Wunderground v.1.15,2013-01-10 07:48:00,
2013-01-10 02:54:00,49.5,49.0,30.52,SW,223,0.0,1.0,98,0.00,,,0.00,Wunderground v.1.15,2013-01-10 07:54:00,
2013-01-10 03:00:00,49.9,49.1,30.52,SW,217,1.0,1.0,97,0.00,,,0.00,Wunderground v.1.15,2013-01-10 08:00:00,
2013-01-10 03:06:00,49.8,48.7,30.53,SW,226,1.0,1.0,96,0.00,,,0.00,Wunderground v.1.15,2013-01-10 08:06:00,
2013-01-10 03:12:00,50.0,48.9,30.52,SW,223,1.0,1.0,96,0.00,,,0.00,Wunderground v.1.15,2013-01-10 08:12:00,
2013-01-10 03:18:00,50.0,48.9,30.53,SW,221,1.0,1.0,96,0.00,,,0.00,Wunderground v.1.15,2013-01-10 08:18:00,
2013-01-10 03:24:00,49.8,48.7,30.53,SSW,207,1.0,1.0,96,0.00,,,0.00,Wunderground v.1.15,2013-01-10 08:24:00,
2013-01-10 03:30:00,49.6,48.5,30.52,SW,215,1.0,1.0,96,0.00,,,0.00,Wunderground v.1.15,2013-01-10 08:30:00,
2013-01-10 03:36:00,49.6,48.8,30.52,SSW,211,1.0,1.0,97,0.00,,,0.00,Wunderground v.1.15,2013-01-10 08:36:00,
2013-01-10 03:42:00,49.5,48.4,30.52,SW,221,1.0,1.0,96,0.00,,,0.00,Wunderground v.1.15,2013-01-10 08:42:00,
2013-01-10 03:48:00,49.5,48.7,30.52,SW,214,1.0,2.0,97,0.00,,,0.00,Wunderground v.1.15,2013-01-10 08:48:00,
2013-01-10 03:54:00,49.5,48.7,30.52,SW,221,1.0,2.0,97,0.00,,,0.00,Wunderground v.1.15,2013-01-10 08:54:00,
2013-01-10 04:00:00,49.5,48.7,30.52,SSW,200,2.0,2.0,97,0.00,,,0.00,Wunderground v.1.15,2013-01-10 09:00:00,
2013-01-10 04:06:00,49.4,48.3,30.52,SSW,208,2.0,2.0,96,0.00,,,0.00,Wunderground v.1.15,2013-01-10 09:06:00,
2013-01-10 04:12:00,49.4,48.6,30.52,SSW,213,1.0,2.0,97,0.00,,,0.00,Wunderground v.1.15,2013-01-10 09:12:00,
2013-01-10 04:18:00,49.3,48.5,30.52,SW,221,1.0,2.0,97,0.00,,,0.00,Wunderground v.1.15,2013-01-10 09:18:00,
2013-01-10 04:24:00,49.3,48.5,30.52,SW,217,1.0,2.0,97,0.00,,,0.00,Wunderground v.1.15,2013-01-10 09:24:00,
2013-01-10 04:30:00,49.2,48.4,30.52,SW,215,1.0,2.0,97,0.00,,,0.00,Wunderground v.1.15,2013-01-10 09:30:00,
2013-01-10 04:36:00,49.2,48.4,30.51,SW,222,2.0,2.0,97,0.00,,,0.00,Wunderground v.1.15,2013-01-10 09:36:00,
2013-01-10 04:42:00,49.3,48.5,30.51,SW,226,1.0,1.0,97,0.00,,,0.00,Wunderground v.1.15,2013-01-10 09:42:00,
2013-01-10 04:48:00,49.3,48.5,30.51,SW,228,1.0,1.0,97,0.00,,,0.00,Wunderground v.1.15,2013-01-10 09:48:00,
2013-01-10 04:54:00,49.4,48.6,30.51,SW,224,1.0,1.0,97,0.00,,,0.00,Wunderground v.1.15,2013-01-10 09:54:00,
2013-01-10 05:00:00,49.4,48.3,30.51,SW,224,1.0,1.0,96,0.00,,,0.00,Wunderground v.1.15,2013-01-10 10:00:00,
2013-01-10 05:06:00,49.6,48.5,30.50,SW,224,0.0,1.0,96,0.00,,,0.00,Wunderground v.1.15,2013-01-10 10:06:00,
2013-01-10 05:12:00,50.3,48.9,30.50,SW,224,0.0,0.0,95,0.00,,,0.00,Wunderground v.1.15,2013-01-10 10:12:00,
2013-01-10 05:18:00,51.0,49.0,30.50,SSW,208,1.0,1.0,93,0.00,,,0.00,Wunderground v.1.15,2013-01-10 10:18:00,
2013-01-10 05:24:00,51.5,49.3,30.50,SSW,213,1.0,1.0,92,0.00,,,0.00,Wunderground v.1.15,2013-01-10 10:24:00,
2013-01-10 05:30:00,51.4,48.9,30.50,SW,225,0.0,2.0,91,0.00,,,0.00,Wunderground v.1.15,2013-01-10 10:30:00,
2013-01-10 05:36:00,51.1,48.9,30.50,SW,225,1.0,2.0,92,0.00,,,0.00,Wunderground v.1.15,2013-01-10 10:36:00,
2013-01-10 05:42:00,51.2,49.0,30.50,SW,226,1.0,1.0,92,0.00,,,0.00,Wunderground v.1.15,2013-01-10 10:42:00,
2013-01-10 05:48:00,51.2,49.0,30.50,SW,226,1.0,1.0,92,0.00,,,0.00,Wunderground v.1.15,2013-01-10 10:48:00,
2013-01-10 05:54:00,51.2,49.0,30.50,SW,227,1.0,1.0,92,0.00,,,0.00,Wunderground v.1.15,2013-01-10 10:54:00,
2013-01-10 06:00:00,51.2,49.0,30.51,SW,228,1.0,1.0,92,0.00,,,0.00,Wunderground v.1.15,2013-01-10 11:00:00,
2013-01-10 06:06:00,51.1,48.9,30.51,SW,226,1.0,1.0,92,0.00,,,0.00,Wunderground v.1.15,2013-01-10 11:06:00,
2013-01-10 06:12:00,51.0,48.8,30.51,SW,219,1.0,2.0,92,0.00,,,0.00,Wunderground v.1.15,2013-01-10 11:12:00,
2013-01-10 06:18:00,51.1,48.9,30.51,SW,215,1.0,2.0,92,0.00,,,0.00,Wunderground v.1.15,2013-01-10 11:18:00,
2013-01-10 06:24:00,51.1,48.9,30.51,SW,218,1.0,1.0,92,0.00,,,0.00,Wunderground v.1.15,2013-01-10 11:24:00,
2013-01-10 06:30:00,51.0,48.8,30.51,SW,215,1.0,1.0,92,0.00,,,0.00,Wunderground v.1.15,2013-01-10 11:30:00,
2013-01-10 06:36:00,51.0,48.8,30.51,SW,224,1.0,2.0,92,0.00,,,0.00,Wunderground v.1.15,2013-01-10 11:36:00,
2013-01-10 06:42:00,51.1,48.9,30.51,SW,217,1.0,1.0,92,0.00,,,0.00,Wunderground v.1.15,2013-01-10 11:42:00,
2013-01-10 06:48:00,51.0,48.8,30.51,SW,226,1.0,1.0,92,0.00,,,0.00,Wunderground v.1.15,2013-01-10 11:48:00,
2013-01-10 06:54:00,51.1,48.9,30.51,SW,219,1.0,2.0,92,0.00,,,0.00,Wunderground v.1.15,2013-01-10 11:54:00,
2013-01-10 07:00:00,51.1,48.9,30.51,SW,227,1.0,2.0,92,0.00,,,0.00,Wunderground v.1.15,2013-01-10 12:00:00,
2013-01-10 07:06:00,51.0,48.8,30.51,SW,217,1.0,2.0,92,0.00,,,0.00,Wunderground v.1.15,2013-01-10 12:06:00,
2013-01-10 07:12:00,51.1,48.9,30.51,SW,232,2.0,2.0,92,0.00,,,0.00,Wunderground v.1.15,2013-01-10 12:12:00,
2013-01-10 07:18:00,51.2,49.0,30.52,SW,229,1.0,2.0,92,0.00,,,0.00,Wunderground v.1.15,2013-01-10 12:18:00,
2013-01-10 07:24:00,51.4,49.2,30.51,SSW,212,1.0,1.0,92,0.00,,,0.00,Wunderground v.1.15,2013-01-10 12:24:00,
2013-01-10 07:30:00,51.5,49.0,30.51,SW,232,1.0,1.0,91,0.00,,,0.00,Wunderground v.1.15,2013-01-10 12:30:00,
2013-01-10 07:36:00,51.1,48.6,30.52,SW,225,1.0,2.0,91,0.00,,,0.00,Wunderground v.1.15,2013-01-10 12:36:00,
2013-01-10 07:42:00,51.0,48.8,30.52,SW,222,1.0,1.0,92,0.00,,,0.00,Wunderground v.1.15,2013-01-10 12:42:00,
2013-01-10 07:48:00,50.9,48.7,30.52,SW,222,1.0,2.0,92,0.00,,,0.00,Wunderground v.1.15,2013-01-10 12:48:00,
2013-01-10 07:54:00,50.8,48.6,30.52,SW,222,1.0,1.0,92,0.00,,,0.00,Wunderground v.1.15,2013-01-10 12:54:00,
2013-01-10 08:00:00,50.7,48.7,30.52,SW,222,0.0,1.0,93,0.00,,,0.00,Wunderground v.1.15,2013-01-10 13:00:00,
2013-01-10 08:06:00,50.8,48.8,30.52,SW,232,1.0,1.0,93,0.00,,,0.00,Wunderground v.1.15,2013-01-10 13:06:00,
2013-01-10 08:12:00,51.0,48.8,30.53,SW,232,1.0,1.0,92,0.00,,,0.00,Wunderground v.1.15,2013-01-10 13:12:00,
2013-01-10 08:18:00,51.2,49.0,30.53,SW,232,1.0,1.0,92,0.00,,,0.00,Wunderground v.1.15,2013-01-10 13:18:00,
2013-01-10 08:24:00,51.4,49.2,30.53,SW,232,0.0,1.0,92,0.00,,,0.00,Wunderground v.1.15,2013-01-10 13:24:00,
2013-01-10 08:30:00,52.1,49.3,30.53,SW,232,1.0,1.0,90,0.00,,,0.00,Wunderground v.1.15,2013-01-10 13:30:00,
2013-01-10 08:36:00,52.4,49.3,30.54,SW,232,1.0,1.0,89,0.00,,,0.00,Wunderground v.1.15,2013-01-10 13:36:00,
2013-01-10 08:42:00,52.5,49.4,30.54,SW,232,0.0,1.0,89,0.00,,,0.00,Wunderground v.1.15,2013-01-10 13:42:00,
2013-01-10 08:48:00,52.8,49.3,30.54,SSW,211,1.0,1.0,88,0.00,,,0.00,Wunderground v.1.15,2013-01-10 13:48:00,
2013-01-10 08:54:00,52.9,49.4,30.54,SW,222,1.0,1.0,88,0.00,,,0.00,Wunderground v.1.15,2013-01-10 13:54:00,
2013-01-10 09:00:00,53.1,49.6,30.54,SW,215,1.0,1.0,88,0.00,,,0.00,Wunderground v.1.15,2013-01-10 14:00:00,
2013-01-10 09:06:00,53.2,49.4,30.54,SW,218,1.0,1.0,87,0.00,,,0.00,Wunderground v.1.15,2013-01-10 14:06:00,
2013-01-10 09:12:00,53.2,49.7,30.54,SW,218,1.0,1.0,88,0.00,,,0.00,Wunderground v.1.15,2013-01-10 14:12:00,
2013-01-10 09:18:00,53.1,49.6,30.54,SW,219,0.0,1.0,88,0.00,,,0.00,Wunderground v.1.15,2013-01-10 14:18:00,
2013-01-10 09:24:00,53.1,49.9,30.54,SW,217,0.0,1.0,89,0.00,,,0.00,Wunderground v.1.15,2013-01-10 14:24:00,
2013-01-10 09:30:00,53.3,49.8,30.54,SW,215,1.0,3.0,88,0.00,,,0.00,Wunderground v.1.15,2013-01-10 14:30:00,
2013-01-10 09:36:00,53.7,49.9,30.54,SW,214,2.0,3.0,87,0.00,,,0.00,Wunderground v.1.15,2013-01-10 14:36:00,
2013-01-10 09:42:00,53.7,49.9,30.54,SW,226,2.0,2.0,87,0.00,,,0.00,Wunderground v.1.15,2013-01-10 14:42:00,
2013-01-10 09:48:00,53.6,49.8,30.54,SSW,210,2.0,3.0,87,0.00,,,0.00,Wunderground v.1.15,2013-01-10 14:48:00,
2013-01-10 09:54:00,53.7,50.2,30.54,SSW,205,3.0,3.0,88,0.00,,,0.00,Wunderground v.1.15,2013-01-10 14:54:00,
2013-01-10 10:00:00,53.8,50.0,30.54,SSW,211,3.0,3.0,87,0.00,,,0.00,Wunderground v.1.15,2013-01-10 15:00:00,
2013-01-10 10:06:00,54.0,50.2,30.55,SSE,149,3.0,3.0,87,0.00,,,0.00,Wunderground v.1.15,2013-01-10 15:06:00,
2013-01-10 10:12:00,54.9,51.1,30.54,SSW,203,2.0,2.0,87,0.00,,,0.00,Wunderground v.1.15,2013-01-10 15:12:00,
2013-01-10 10:18:00,56.5,52.0,30.54,South,188,2.0,3.0,85,0.00,,,0.00,Wunderground v.1.15,2013-01-10 15:18:00,
2013-01-10 10:24:00,57.5,52.7,30.54,SSE,149,2.0,4.0,84,0.00,,,0.00,Wunderground v.1.15,2013-01-10 15:24:00,
2013-01-10 10:30:00,58.0,52.2,30.54,SSW,207,2.0,5.0,81,0.00,,,0.00,Wunderground v.1.15,2013-01-10 15:30:00,
2013-01-10 10:36:00,58.6,52.4,30.54,ESE,107,3.0,5.0,80,0.00,,,0.00,Wunderground v.1.15,2013-01-10 15:36:00,
2013-01-10 10:42:00,58.8,52.0,30.54,SSW,195,3.0,3.0,78,0.00,,,0.00,Wunderground v.1.15,2013-01-10 15:42:00,
2013-01-10 10:48:00,58.6,52.1,30.54,South,174,3.0,10.0,79,0.00,,,0.00,Wunderground v.1.15,2013-01-10 15:48:00,
2013-01-10 10:54:00,58.4,51.6,30.53,SSW,195,3.0,3.0,78,0.00,,,0.00,Wunderground v.1.15,2013-01-10 15:54:00,
2013-01-10 11:00:00,58.2,51.4,30.53,South,177,3.0,4.0,78,0.00,,,0.00,Wunderground v.1.15,2013-01-10 16:00:00,
2013-01-10 11:06:00,57.8,51.3,30.53,SSW,209,2.0,6.0,79,0.00,,,0.00,Wunderground v.1.15,2013-01-10 16:06:00,
2013-01-10 11:12:00,57.6,51.1,30.53,SSW,197,3.0,4.0,79,0.00,,,0.00,Wunderground v.1.15,2013-01-10 16:12:00,
2013-01-10 11:18:00,57.5,51.4,30.53,SW,219,3.0,4.0,80,0.00,,,0.00,Wunderground v.1.15,2013-01-10 16:18:00,
2013-01-10 11:24:00,57.7,51.6,30.53,West,264,2.0,3.0,80,0.00,,,0.00,Wunderground v.1.15,2013-01-10 16:24:00,
2013-01-10 11:30:00,57.8,51.3,30.53,SSW,202,2.0,3.0,79,0.00,,,0.00,Wunderground v.1.15,2013-01-10 16:30:00,
2013-01-10 11:36:00,57.9,51.4,30.52,SSE,153,2.0,3.0,79,0.00,,,0.00,Wunderground v.1.15,2013-01-10 16:36:00,
2013-01-10 11:42:00,58.4,51.6,30.52,SSE,155,2.0,2.0,78,0.00,,,0.00,Wunderground v.1.15,2013-01-10 16:42:00,
2013-01-10 11:48:00,58.3,51.5,30.52,SSW,194,2.0,4.0,78,0.00,,,0.00,Wunderground v.1.15,2013-01-10 16:48:00,
2013-01-10 11:54:00,57.8,51.0,30.52,SW,217,3.0,3.0,78,0.00,,,0.00,Wunderground v.1.15,2013-01-10 16:54:00,
2013-01-10 12:00:00,57.3,50.8,30.51,SSW,211,3.0,3.0,79,0.00,,,0.00,Wunderground v.1.15,2013-01-10 17:00:00,
2013-01-10 12:06:00,57.1,51.0,30.51,SSW,203,2.0,3.0,80,0.00,,,0.00,Wunderground v.1.15,2013-01-10 17:06:00,
2013-01-10 12:12:00,57.2,51.1,30.50,SE,135,2.0,2.0,80,0.00,,,0.00,Wunderground v.1.15,2013-01-10 17:12:00,
2013-01-10 12:18:00,57.3,50.8,30.50,SW,228,2.0,5.0,79,0.00,,,0.00,Wunderground v.1.15,2013-01-10 17:18:00,
2013-01-10 12:24:00,57.1,51.0,30.50,SSW,210,3.0,4.0,80,0.00,,,0.00,Wunderground v.1.15,2013-01-10 17:24:00,
2013-01-10 12:30:00,57.2,50.7,30.49,SSE,165,3.0,3.0,79,0.00,,,0.00,Wunderground v.1.15,2013-01-10 17:30:00,
2013-01-10 12:36:00,57.6,51.1,30.49,SE,126,2.0,3.0,79,0.00,,,0.00,Wunderground v.1.15,2013-01-10 17:36:00,
2013-01-10 12:42:00,57.6,50.8,30.49,SSW,202,2.0,3.0,78,0.00,,,0.00,Wunderground v.1.15,2013-01-10 17:42:00,
2013-01-10 12:48:00,57.3,50.5,30.48,SW,232,2.0,7.0,78,0.00,,,0.00,Wunderground v.1.15,2013-01-10 17:48:00,
2013-01-10 12:54:00,57.1,50.3,30.48,SSW,207,3.0,4.0,78,0.00,,,0.00,Wunderground v.1.15,2013-01-10 17:54:00,
2013-01-10 13:00:00,57.0,50.5,30.48,South,191,3.0,3.0,79,0.00,,,0.00,Wunderground v.1.15,2013-01-10 18:00:00,
2013-01-10 13:06:00,57.2,50.4,30.47,SSE,163,3.0,5.0,78,0.00,,,0.00,Wunderground v.1.15,2013-01-10 18:06:00,
2013-01-10 13:12:00,57.4,50.6,30.47,SSW,200,2.0,4.0,78,0.00,,,0.00,Wunderground v.1.15,2013-01-10 18:12:00,
2013-01-10 13:18:00,57.6,50.8,30.47,South,183,2.0,4.0,78,0.00,,,0.00,Wunderground v.1.15,2013-01-10 18:18:00,
2013-01-10 13:24:00,57.4,50.2,30.46,SSW,201,3.0,3.0,77,0.00,,,0.00,Wunderground v.1.15,2013-01-10 18:24:00,
2013-01-10 13:30:00,57.8,50.3,30.46,WSW,247,2.0,2.0,76,0.00,,,0.00,Wunderground v.1.15,2013-01-10 18:30:00,
2013-01-10 13:36:00,57.6,50.4,30.46,SSE,160,2.0,3.0,77,0.00,,,0.00,Wunderground v.1.15,2013-01-10 18:36:00,
2013-01-10 13:42:00,57.4,49.9,30.46,South,183,3.0,3.0,76,0.00,,,0.00,Wunderground v.1.15,2013-01-10 18:42:00,
2013-01-10 13:48:00,57.5,50.0,30.46,SW,214,2.0,3.0,76,0.00,,,0.00,Wunderground v.1.15,2013-01-10 18:48:00,
2013-01-10 13:54:00,57.8,50.3,30.45,SSW,201,2.0,4.0,76,0.00,,,0.00,Wunderground v.1.15,2013-01-10 18:54:00,
2013-01-10 14:00:00,58.1,50.6,30.45,SSW,211,2.0,3.0,76,0.00,,,0.00,Wunderground v.1.15,2013-01-10 19:00:00,
2013-01-10 14:06:00,58.2,50.0,30.45,SSW,205,2.0,3.0,74,0.00,,,0.00,Wunderground v.1.15,2013-01-10 19:06:00,
2013-01-10 14:12:00,58.1,50.2,30.44,SE,138,2.0,2.0,75,0.00,,,0.00,Wunderground v.1.15,2013-01-10 19:12:00,
2013-01-10 14:18:00,58.1,50.2,30.45,SSW,205,3.0,6.0,75,0.00,,,0.00,Wunderground v.1.15,2013-01-10 19:18:00,
2013-01-10 14:24:00,58.4,50.1,30.44,ESE,121,3.0,3.0,74,0.00,,,0.00,Wunderground v.1.15,2013-01-10 19:24:00,
2013-01-10 14:30:00,58.9,50.6,30.44,SE,130,2.0,2.0,74,0.00,,,0.00,Wunderground v.1.15,2013-01-10 19:30:00,
2013-01-10 14:36:00,59.2,50.2,30.44,South,190,2.0,3.0,72,0.00,,,0.00,Wunderground v.1.15,2013-01-10 19:36:00,
2013-01-10 14:42:00,59.5,50.8,30.44,ESE,102,3.0,4.0,73,0.00,,,0.00,Wunderground v.1.15,2013-01-10 19:42:00,
2013-01-10 14:48:00,59.6,49.8,30.44,SSE,148,2.0,4.0,70,0.00,,,0.00,Wunderground v.1.15,2013-01-10 19:48:00,
2013-01-10 14:54:00,59.3,50.3,30.44,SSW,194,2.0,4.0,72,0.00,,,0.00,Wunderground v.1.15,2013-01-10 19:54:00,
2013-01-10 15:00:00,59.3,50.3,30.44,SW,227,2.0,2.0,72,0.00,,,0.00,Wunderground v.1.15,2013-01-10 20:00:00,
2013-01-10 15:06:00,59.3,49.9,30.44,SSW,210,1.0,2.0,71,0.00,,,0.00,Wunderground v.1.15,2013-01-10 20:06:00,
2013-01-10 15:12:00,58.8,49.4,30.44,SSW,204,2.0,2.0,71,0.00,,,0.00,Wunderground v.1.15,2013-01-10 20:12:00,
2013-01-10 15:18:00,58.8,49.8,30.44,SSW,211,2.0,3.0,72,0.00,,,0.00,Wunderground v.1.15,2013-01-10 20:18:00,
2013-01-10 15:24:00,58.6,49.6,30.44,SSW,198,3.0,6.0,72,0.00,,,0.00,Wunderground v.1.15,2013-01-10 20:24:00,
2013-01-10 15:30:00,58.3,49.7,30.44,SE,142,3.0,5.0,73,0.00,,,0.00,Wunderground v.1.15,2013-01-10 20:30:00,
2013-01-10 15:36:00,57.9,49.7,30.44,SSW,205,3.0,5.0,74,0.00,,,0.00,Wunderground v.1.15,2013-01-10 20:36:00,
2013-01-10 15:42:00,57.4,49.5,30.44,SE,134,4.0,4.0,75,0.00,,,0.00,Wunderground v.1.15,2013-01-10 20:42:00,
2013-01-10 15:48:00,57.0,49.5,30.43,SW,215,4.0,8.0,76,0.00,,,0.00,Wunderground v.1.15,2013-01-10 20:48:00,
2013-01-10 15:54:00,56.6,49.5,30.44,South,170,4.0,4.0,77,0.00,,,0.00,Wunderground v.1.15,2013-01-10 20:54:00,
2013-01-10 16:00:00,56.4,49.3,30.44,SW,231,3.0,4.0,77,0.00,,,0.00,Wunderground v.1.15,2013-01-10 21:00:00,
2013-01-10 16:06:00,56.1,49.3,30.44,South,181,3.0,6.0,78,0.00,,,0.00,Wunderground v.1.15,2013-01-10 21:06:00,
2013-01-10 16:12:00,55.8,49.4,30.44,SW,222,3.0,4.0,79,0.00,,,0.00,Wunderground v.1.15,2013-01-10 21:12:00,
2013-01-10 16:18:00,55.5,49.1,30.44,SSE,152,2.0,6.0,79,0.00,,,0.00,Wunderground v.1.15,2013-01-10 21:18:00,
2013-01-10 16:24:00,55.4,49.3,30.44,SSW,205,3.0,7.0,80,0.00,,,0.00,Wunderground v.1.15,2013-01-10 21:24:00,
2013-01-10 16:32:00,55.2,49.1,30.44,SSW,194,3.0,4.0,80,0.00,,,0.00,Wunderground v.1.15,2013-01-10 21:32:00,
2013-01-10 16:38:00,55.1,49.0,30.44,WSW,255,3.0,4.0,80,0.00,,,0.00,Wunderground v.1.15,2013-01-10 21:38:00,
2013-01-10 16:44:00,54.9,49.2,30.45,SSW,210,3.0,5.0,81,0.00,,,0.00,Wunderground v.1.15,2013-01-10 21:44:00,
2013-01-10 16:50:00,54.7,48.6,30.44,SW,224,4.0,4.0,80,0.00,,,0.00,Wunderground v.1.15,2013-01-10 21:50:00,
2013-01-10 16:56:00,54.4,48.7,30.44,SSW,197,3.0,5.0,81,0.00,,,0.00,Wunderground v.1.15,2013-01-10 21:56:00,
2013-01-10 17:02:00,54.4,48.7,30.45,SW,219,4.0,4.0,81,0.00,,,0.00,Wunderground v.1.15,2013-01-10 22:02:00,
2013-01-10 17:08:00,54.2,48.5,30.45,SW,228,3.0,4.0,81,0.00,,,0.00,Wunderground v.1.15,2013-01-10 22:08:00,
2013-01-10 17:14:00,53.9,48.5,30.44,SE,129,3.0,3.0,82,0.00,,,0.00,Wunderground v.1.15,2013-01-10 22:14:00,
2013-01-10 17:20:00,53.8,48.4,30.44,SSE,148,3.0,3.0,82,0.00,,,0.00,Wunderground v.1.15,2013-01-10 22:20:00,
2013-01-10 17:26:00,53.5,48.5,30.44,SSW,207,3.0,5.0,83,0.00,,,0.00,Wunderground v.1.15,2013-01-10 22:26:00,
2013-01-10 17:32:00,53.5,48.5,30.44,SW,226,3.0,3.0,83,0.00,,,0.00,Wunderground v.1.15,2013-01-10 22:32:00,
2013-01-10 17:38:00,53.3,48.6,30.44,SW,222,3.0,3.0,84,0.00,,,0.00,Wunderground v.1.15,2013-01-10 22:38:00,
2013-01-10 17:44:00,53.2,48.5,30.44,SSW,195,3.0,5.0,84,0.00,,,0.00,Wunderground v.1.15,2013-01-10 22:44:00,
2013-01-10 17:50:00,53.1,48.4,30.44,SSE,149,3.0,4.0,84,0.00,,,0.00,Wunderground v.1.15,2013-01-10 22:50:00,
2013-01-10 17:56:00,53.0,48.3,30.44,SSW,207,3.0,6.0,84,0.00,,,0.00,Wunderground v.1.15,2013-01-10 22:56:00,
2013-01-10 18:02:00,52.8,48.4,30.43,WSW,250,3.0,7.0,85,0.00,,,0.00,Wunderground v.1.15,2013-01-10 23:02:00,
2013-01-10 18:08:00,52.6,48.5,30.43,WSW,241,2.0,7.0,86,0.00,,,0.00,Wunderground v.1.15,2013-01-10 23:08:00,
2013-01-10 18:14:00,52.4,48.3,30.43,SW,223,3.0,3.0,86,0.00,,,0.00,Wunderground v.1.15,2013-01-10 23:14:00,
2013-01-10 18:20:00,51.9,48.2,30.43,SSW,204,3.0,3.0,87,0.00,,,0.00,Wunderground v.1.15,2013-01-10 23:20:00,
2013-01-10 18:26:00,51.8,48.1,30.43,SE,130,4.0,5.0,87,0.00,,,0.00,Wunderground v.1.15,2013-01-10 23:26:00,
2013-01-10 18:32:00,51.5,48.1,30.42,ESE,118,4.0,5.0,88,0.00,,,0.00,Wunderground v.1.15,2013-01-10 23:32:00,
2013-01-10 18:38:00,51.3,47.9,30.42,SSW,201,4.0,5.0,88,0.00,,,0.00,Wunderground v.1.15,2013-01-10 23:38:00,
2013-01-10 18:44:00,51.0,47.6,30.43,SSW,204,3.0,4.0,88,0.00,,,0.00,Wunderground v.1.15,2013-01-10 23:44:00,
2013-01-10 18:50:00,50.9,47.8,30.43,ESE,110,4.0,4.0,89,0.00,,,0.00,Wunderground v.1.15,2013-01-10 23:50:00,
2013-01-10 18:58:00,50.7,47.6,30.43,SSW,211,4.0,5.0,89,0.00,,,0.00,Wunderground v.1.15,2013-01-10 23:58:00,
2013-01-10 19:04:00,50.4,47.6,30.43,SW,232,4.0,8.0,90,0.00,,,0.00,Wunderground v.1.15,2013-01-11 00:04:00,
2013-01-10 19:10:00,50.3,47.5,30.43,SE,134,4.0,4.0,90,0.00,,,0.00,Wunderground v.1.15,2013-01-11 00:10:00,
2013-01-10 19:16:00,50.2,47.7,30.42,South,186,3.0,8.0,91,0.00,,,0.00,Wunderground v.1.15,2013-01-11 00:16:00,
2013-01-10 19:22:00,50.2,47.4,30.42,SE,145,3.0,3.0,90,0.00,,,0.00,Wunderground v.1.15,2013-01-11 00:22:00,
2013-01-10 19:28:00,50.0,47.5,30.42,SSW,205,4.0,7.0,91,0.00,,,0.00,Wunderground v.1.15,2013-01-11 00:28:00,
2013-01-10 19:34:00,49.9,47.4,30.42,SSW,209,5.0,7.0,91,0.00,,,0.00,Wunderground v.1.15,2013-01-11 00:34:00,
2013-01-10 19:40:00,49.8,47.3,30.42,West,273,6.0,11.0,91,0.00,,,0.00,Wunderground v.1.15,2013-01-11 00:40:00,
2013-01-10 19:46:00,49.9,47.4,30.42,SSW,212,6.0,11.0,91,0.00,,,0.00,Wunderground v.1.15,2013-01-11 00:46:00,
2013-01-10 19:54:00,50.0,47.5,30.41,SSE,155,6.0,6.0,91,0.00,,,0.00,Wunderground v.1.15,2013-01-11 00:54:00,
2013-01-10 20:00:00,50.0,47.5,30.41,SW,226,6.0,6.0,91,0.00,,,0.00,Wunderground v.1.15,2013-01-11 01:00:00,
2013-01-10 20:06:00,49.9,47.4,30.41,South,181,7.0,7.0,91,0.00,,,0.00,Wunderground v.1.15,2013-01-11 01:06:00,
2013-01-10 20:12:00,49.9,47.4,30.41,SW,232,6.0,11.0,91,0.00,,,0.00,Wunderground v.1.15,2013-01-11 01:12:00,
2013-01-10 20:20:00,49.9,47.4,30.41,SSE,158,6.0,6.0,91,0.00,,,0.00,Wunderground v.1.15,2013-01-11 01:20:00,
2013-01-10 20:26:00,49.9,47.1,30.40,South,181,6.0,8.0,90,0.00,,,0.00,Wunderground v.1.15,2013-01-11 01:26:00,
2013-01-10 20:32:00,49.9,47.1,30.40,SSW,204,6.0,11.0,90,0.00,,,0.00,Wunderground v.1.15,2013-01-11 01:32:00,
2013-01-10 20:38:00,49.9,47.1,30.40,SSW,197,6.0,11.0,90,0.00,,,0.00,Wunderground v.1.15,2013-01-11 01:38:00,
2013-01-10 20:44:00,50.0,47.2,30.40,SSW,203,7.0,8.0,90,0.00,,,0.00,Wunderground v.1.15,2013-01-11 01:44:00,
2013-01-10 20:50:00,50.0,47.2,30.40,ESE,112,7.0,7.0,90,0.00,,,0.00,Wunderground v.1.15,2013-01-11 01:50:00,
2013-01-10 20:56:00,49.9,47.1,30.40,South,172,8.0,11.0,90,0.00,,,0.00,Wunderground v.1.15,2013-01-11 01:56:00,
2013-01-10 21:02:00,49.7,46.9,30.40,South,169,9.0,11.0,90,0.00,,,0.00,Wunderground v.1.15,2013-01-11 02:02:00,
2013-01-10 21:08:00,49.5,46.7,30.40,South,190,8.0,11.0,90,0.00,,,0.00,Wunderground v.1.15,2013-01-11 02:08:00,
2013-01-10 21:14:00,49.4,46.9,30.39,SSW,207,8.0,11.0,91,0.00,,,0.00,Wunderground v.1.15,2013-01-11 02:14:00,
2013-01-10 21:20:00,49.3,46.5,30.40,South,188,9.0,9.0,90,0.00,,,0.00,Wunderground v.1.15,2013-01-11 02:20:00,
2013-01-10 21:26:00,49.3,46.5,30.40,SSW,204,9.0,10.0,90,0.00,,,0.00,Wunderground v.1.15,2013-01-11 02:26:00,
2013-01-10 21:32:00,49.2,46.4,30.40,SW,224,9.0,17.0,90,0.00,,,0.00,Wunderground v.1.15,2013-01-11 02:32:00,
2013-01-10 21:38:00,49.0,46.2,30.39,SSW,211,9.0,17.0,90,0.00,,,0.00,Wunderground v.1.15,2013-01-11 02:38:00,
2013-01-10 21:44:00,48.9,46.1,30.39,SSW,194,8.0,9.0,90,0.00,,,0.00,Wunderground v.1.15,2013-01-11 02:44:00,
2013-01-10 21:50:00,48.9,46.1,30.39,ESE,108,8.0,8.0,90,0.00,,,0.00,Wunderground v.1.15,2013-01-11 02:50:00,
2013-01-10 21:56:00,48.8,46.0,30.39,SSW,208,8.0,8.0,90,0.00,,,0.00,Wunderground v.1.15,2013-01-11 02:56:00,
2013-01-10 22:02:00,48.8,46.0,30.38,South,186,8.0,11.0,90,0.00,,,0.00,Wunderground v.1.15,2013-01-11 03:02:00,
2013-01-10 22:08:00,48.7,45.9,30.38,South,186,8.0,11.0,90,0.00,,,0.00,Wunderground v.1.15,2013-01-11 03:08:00,
2013-01-10 22:14:00,48.7,45.9,30.37,WSW,238,8.0,11.0,90,0.00,,,0.00,Wunderground v.1.15,2013-01-11 03:14:00,
2013-01-10 22:20:00,48.6,45.8,30.36,South,181,8.0,8.0,90,0.00,,,0.00,Wunderground v.1.15,2013-01-11 03:20:00,
2013-01-10 22:26:00,48.6,45.8,30.37,SW,221,8.0,11.0,90,0.00,,,0.00,Wunderground v.1.15,2013-01-11 03:26:00,
2013-01-10 22:32:00,48.5,45.7,30.36,SSW,212,8.0,14.0,90,0.00,,,0.00,Wunderground v.1.15,2013-01-11 03:32:00,
2013-01-10 22:38:00,48.4,45.9,30.36,SW,219,8.0,14.0,91,0.00,,,0.00,Wunderground v.1.15,2013-01-11 03:38:00,
2013-01-10 22:44:00,48.3,45.8,30.35,SW,217,8.0,15.0,91,0.00,,,0.00,Wunderground v.1.15,2013-01-11 03:44:00,
2013-01-10 22:50:00,48.2,45.7,30.35,SW,225,9.0,11.0,91,0.00,,,0.00,Wunderground v.1.15,2013-01-11 03:50:00,
2013-01-10 22:56:00,48.1,45.9,30.35,SSE,158,9.0,12.0,92,0.00,,,0.00,Wunderground v.1.15,2013-01-11 03:56:00,
2013-01-10 23:02:00,48.0,46.1,30.35,West,263,8.0,11.0,93,0.00,,,0.00,Wunderground v.1.15,2013-01-11 04:02:00,
2013-01-10 23:08:00,48.0,46.4,30.34,SW,235,8.0,11.0,94,0.00,,,0.00,Wunderground v.1.15,2013-01-11 04:08:00,
2013-01-10 23:14:00,48.0,46.6,30.34,WSW,238,8.0,12.0,95,0.00,,,0.00,Wunderground v.1.15,2013-01-11 04:14:00,
2013-01-10 23:20:00,47.9,46.5,30.34,South,172,9.0,9.0,95,0.00,,,0.00,Wunderground v.1.15,2013-01-11 04:20:00,
2013-01-10 23:26:00,47.8,46.4,30.34,SSW,205,6.0,9.0,95,0.00,,,0.00,Wunderground v.1.15,2013-01-11 04:26:00,
2013-01-10 23:32:00,47.6,46.5,30.34,South,185,6.0,7.0,96,0.00,,,0.00,Wunderground v.1.15,2013-01-11 04:32:00,
2013-01-10 23:38:00,47.4,46.3,30.34,SW,215,6.0,7.0,96,0.00,,,0.00,Wunderground v.1.15,2013-01-11 04:38:00,
2013-01-10 23:44:00,47.1,46.3,30.34,SSE,148,7.0,13.0,97,0.00,,,0.00,Wunderground v.1.15,2013-01-11 04:44:00,
2013-01-10 23:50:00,47.0,46.2,30.33,SSW,201,9.0,10.0,97,0.00,,,0.00,Wunderground v.1.15,2013-01-11 04:50:00,
2013-01-10 23:56:00,46.8,46.0,30.33,SSE,167,10.0,10.0,97,0.00,,,0.00,Wunderground v.1.15,2013-01-11 04:56:00,